sensor_id;sensor_type;location;lat;lon;timestamp;pressure;altitude;pressure_sealevel;temperature
69420;BMP280;56612;52.030;113.524;2023-02-12T00:01:11;94568.53;;;-13.09
69420;BMP280;56612;52.030;113.524;2023-02-12T00:04:15;94568.78;;;-13.07
69420;BMP280;56612;52.030;113.524;2023-02-12T00:07:20;94572.44;;;-12.99
69420;BMP280;56612;52.030;113.524;2023-02-12T00:10:23;94568.69;;;-12.98
69420;BMP280;56612;52.030;113.524;2023-02-12T00:13:30;94574.66;;;-12.92
69420;BMP280;56612;52.030;113.524;2023-02-12T00:16:33;94579.63;;;-13.03
69420;BMP280;56612;52.030;113.524;2023-02-12T00:19:37;94575.75;;;-13.14
69420;BMP280;56612;52.030;113.524;2023-02-12T00:22:40;94572.25;;;-13.10
69420;BMP280;56612;52.030;113.524;2023-02-12T00:25:44;94584.25;;;-12.93
69420;BMP280;56612;52.030;113.524;2023-02-12T00:28:48;94585.09;;;-12.81
69420;BMP280;56612;52.030;113.524;2023-02-12T00:31:54;94586.66;;;-12.69
69420;BMP280;56612;52.030;113.524;2023-02-12T00:35:00;94587.63;;;-12.51
69420;BMP280;56612;52.030;113.524;2023-02-12T00:38:03;94580.09;;;-12.34
69420;BMP280;56612;52.030;113.524;2023-02-12T00:41:08;94582.59;;;-12.40
69420;BMP280;56612;52.030;113.524;2023-02-12T00:44:11;94586.84;;;-12.37
69420;BMP280;56612;52.030;113.524;2023-02-12T00:47:14;94588.28;;;-12.16
69420;BMP280;56612;52.030;113.524;2023-02-12T00:50:18;94583.84;;;-12.15
69420;BMP280;56612;52.030;113.524;2023-02-12T00:53:21;94592.91;;;-11.99
69420;BMP280;56612;52.030;113.524;2023-02-12T00:56:25;94588.25;;;-11.75
69420;BMP280;56612;52.030;113.524;2023-02-12T00:59:29;94585.25;;;-11.47
69420;BMP280;56612;52.030;113.524;2023-02-12T01:02:32;94581.38;;;-11.31
69420;BMP280;56612;52.030;113.524;2023-02-12T01:05:36;94577.41;;;-11.27
69420;BMP280;56612;52.030;113.524;2023-02-12T01:08:40;94568.59;;;-11.15
69420;BMP280;56612;52.030;113.524;2023-02-12T01:11:43;94567.53;;;-11.02
69420;BMP280;56612;52.030;113.524;2023-02-12T01:14:47;94572.19;;;-10.69
69420;BMP280;56612;52.030;113.524;2023-02-12T01:17:52;94575.94;;;-10.16
69420;BMP280;56612;52.030;113.524;2023-02-12T01:20:55;94573.69;;;-9.75
69420;BMP280;56612;52.030;113.524;2023-02-12T01:24:02;94585.03;;;-9.44
69420;BMP280;56612;52.030;113.524;2023-02-12T01:27:05;94575.41;;;-9.38
69420;BMP280;56612;52.030;113.524;2023-02-12T01:30:11;94593.03;;;-9.31
69420;BMP280;56612;52.030;113.524;2023-02-12T01:33:15;94586.19;;;-9.45
69420;BMP280;56612;52.030;113.524;2023-02-12T01:36:20;94599.38;;;-9.15
69420;BMP280;56612;52.030;113.524;2023-02-12T01:39:23;94585.03;;;-9.27
69420;BMP280;56612;52.030;113.524;2023-02-12T01:42:28;94604.09;;;-8.97
69420;BMP280;56612;52.030;113.524;2023-02-12T01:48:41;94614.34;;;-8.46
69420;BMP280;56612;52.030;113.524;2023-02-12T01:51:45;94615.31;;;-8.49
69420;BMP280;56612;52.030;113.524;2023-02-12T01:54:53;94608.78;;;-8.04
69420;BMP280;56612;52.030;113.524;2023-02-12T01:57:59;94612.47;;;-8.40
69420;BMP280;56612;52.030;113.524;2023-02-12T02:01:05;94616.50;;;-8.50
69420;BMP280;56612;52.030;113.524;2023-02-12T02:04:16;94612.31;;;-8.65
69420;BMP280;56612;52.030;113.524;2023-02-12T02:07:22;94615.06;;;-7.82
69420;BMP280;56612;52.030;113.524;2023-02-12T02:10:26;94620.66;;;-8.25
69420;BMP280;56612;52.030;113.524;2023-02-12T02:13:30;94616.88;;;-8.18
69420;BMP280;56612;52.030;113.524;2023-02-12T02:33:54;94617.88;;;-6.35
69420;BMP280;56612;52.030;113.524;2023-02-12T02:37:54;94612.66;;;-5.60
69420;BMP280;56612;52.030;113.524;2023-02-12T02:40:38;94621.94;;;-5.00
69420;BMP280;56612;52.030;113.524;2023-02-12T02:43:48;94617.44;;;-4.87
69420;BMP280;56612;52.030;113.524;2023-02-12T02:46:52;94625.06;;;-4.49
69420;BMP280;56612;52.030;113.524;2023-02-12T02:50:05;94617.00;;;-4.25
69420;BMP280;56612;52.030;113.524;2023-02-12T02:53:20;94617.31;;;-4.41
69420;BMP280;56612;52.030;113.524;2023-02-12T02:56:25;94617.16;;;-3.96
69420;BMP280;56612;52.030;113.524;2023-02-12T02:59:34;94629.16;;;-3.17
69420;BMP280;56612;52.030;113.524;2023-02-12T03:02:44;94641.38;;;-2.63
69420;BMP280;56612;52.030;113.524;2023-02-12T03:05:50;94640.53;;;-2.86
69420;BMP280;56612;52.030;113.524;2023-02-12T03:08:59;94622.53;;;-3.18
69420;BMP280;56612;52.030;113.524;2023-02-12T03:12:30;94627.25;;;-3.17
69420;BMP280;56612;52.030;113.524;2023-02-12T03:15:42;94612.63;;;-5.73
69420;BMP280;56612;52.030;113.524;2023-02-12T03:19:04;94611.34;;;-6.91
69420;BMP280;56612;52.030;113.524;2023-02-12T03:22:11;94604.31;;;-7.26
69420;BMP280;56612;52.030;113.524;2023-02-12T03:25:22;94615.63;;;-8.01
69420;BMP280;56612;52.030;113.524;2023-02-12T03:28:30;94606.31;;;-8.37
69420;BMP280;56612;52.030;113.524;2023-02-12T03:31:48;94610.22;;;-8.14
69420;BMP280;56612;52.030;113.524;2023-02-12T03:35:08;94611.91;;;-8.11
69420;BMP280;56612;52.030;113.524;2023-02-12T03:41:41;94607.66;;;-7.72
69420;BMP280;56612;52.030;113.524;2023-02-12T03:51:24;94594.19;;;-7.30
69420;BMP280;56612;52.030;113.524;2023-02-12T03:54:29;94596.63;;;-7.07
69420;BMP280;56612;52.030;113.524;2023-02-12T03:57:42;94589.72;;;-7.29
69420;BMP280;56612;52.030;113.524;2023-02-12T04:00:47;94590.13;;;-7.25
69420;BMP280;56612;52.030;113.524;2023-02-12T04:03:51;94594.28;;;-7.11
69420;BMP280;56612;52.030;113.524;2023-02-12T04:06:55;94587.41;;;-7.08
69420;BMP280;56612;52.030;113.524;2023-02-12T04:09:59;94594.00;;;-7.37
69420;BMP280;56612;52.030;113.524;2023-02-12T04:32:58;94562.19;;;-6.64
69420;BMP280;56612;52.030;113.524;2023-02-12T04:36:18;94574.47;;;-6.89
69420;BMP280;56612;52.030;113.524;2023-02-12T04:39:26;94565.06;;;-6.92
69420;BMP280;56612;52.030;113.524;2023-02-12T04:42:46;94565.56;;;-7.00
69420;BMP280;56612;52.030;113.524;2023-02-12T04:45:51;94570.59;;;-6.77
69420;BMP280;56612;52.030;113.524;2023-02-12T04:48:57;94575.09;;;-6.78
69420;BMP280;56612;52.030;113.524;2023-02-12T04:52:01;94557.41;;;-7.09
69420;BMP280;56612;52.030;113.524;2023-02-12T04:55:04;94545.63;;;-7.10
69420;BMP280;56612;52.030;113.524;2023-02-12T04:58:07;94536.47;;;-6.92
69420;BMP280;56612;52.030;113.524;2023-02-12T05:01:11;94531.69;;;-6.88
69420;BMP280;56612;52.030;113.524;2023-02-12T05:04:16;94531.25;;;-6.68
69420;BMP280;56612;52.030;113.524;2023-02-12T05:07:19;94544.75;;;-6.70
69420;BMP280;56612;52.030;113.524;2023-02-12T05:10:23;94558.03;;;-6.98
69420;BMP280;56612;52.030;113.524;2023-02-12T05:13:27;94547.56;;;-7.16
69420;BMP280;56612;52.030;113.524;2023-02-12T05:16:31;94553.16;;;-7.37
69420;BMP280;56612;52.030;113.524;2023-02-12T05:19:34;94558.94;;;-7.19
69420;BMP280;56612;52.030;113.524;2023-02-12T05:22:38;94570.63;;;-6.83
69420;BMP280;56612;52.030;113.524;2023-02-12T05:25:41;94566.38;;;-6.61
69420;BMP280;56612;52.030;113.524;2023-02-12T05:28:44;94560.38;;;-7.00
69420;BMP280;56612;52.030;113.524;2023-02-12T05:31:48;94546.28;;;-7.04
69420;BMP280;56612;52.030;113.524;2023-02-12T05:34:52;94540.69;;;-6.89
69420;BMP280;56612;52.030;113.524;2023-02-12T05:37:56;94546.16;;;-6.69
69420;BMP280;56612;52.030;113.524;2023-02-12T05:41:10;94553.00;;;-6.47
69420;BMP280;56612;52.030;113.524;2023-02-12T05:44:14;94556.09;;;-6.29
69420;BMP280;56612;52.030;113.524;2023-02-12T05:47:17;94576.75;;;-6.37
69420;BMP280;56612;52.030;113.524;2023-02-12T05:50:21;94568.91;;;-6.12
69420;BMP280;56612;52.030;113.524;2023-02-12T05:53:33;94580.56;;;-6.00
69420;BMP280;56612;52.030;113.524;2023-02-12T05:56:43;94576.34;;;-6.22
69420;BMP280;56612;52.030;113.524;2023-02-12T05:59:46;94563.25;;;-6.17
69420;BMP280;56612;52.030;113.524;2023-02-12T06:02:49;94542.34;;;-5.92
69420;BMP280;56612;52.030;113.524;2023-02-12T06:05:52;94559.34;;;-2.14
69420;BMP280;56612;52.030;113.524;2023-02-12T06:08:57;94549.88;;;1.05
69420;BMP280;56612;52.030;113.524;2023-02-12T06:12:01;94571.19;;;6.75
69420;BMP280;56612;52.030;113.524;2023-02-12T06:15:05;94568.00;;;9.11
69420;BMP280;56612;52.030;113.524;2023-02-12T06:18:09;94575.44;;;8.83
69420;BMP280;56612;52.030;113.524;2023-02-12T06:21:12;94569.88;;;7.13
69420;BMP280;56612;52.030;113.524;2023-02-12T06:24:16;94568.50;;;5.89
69420;BMP280;56612;52.030;113.524;2023-02-12T06:27:19;94566.81;;;2.29
69420;BMP280;56612;52.030;113.524;2023-02-12T06:30:22;94555.13;;;1.05
69420;BMP280;56612;52.030;113.524;2023-02-12T06:33:26;94553.28;;;-0.77
69420;BMP280;56612;52.030;113.524;2023-02-12T06:36:29;94571.75;;;1.69
69420;BMP280;56612;52.030;113.524;2023-02-12T06:39:33;94574.66;;;6.40
69420;BMP280;56612;52.030;113.524;2023-02-12T06:42:36;94563.41;;;4.26
69420;BMP280;56612;52.030;113.524;2023-02-12T06:45:39;94573.81;;;0.57
69420;BMP280;56612;52.030;113.524;2023-02-12T06:48:42;94550.91;;;-0.90
69420;BMP280;56612;52.030;113.524;2023-02-12T06:51:45;94547.16;;;-1.58
69420;BMP280;56612;52.030;113.524;2023-02-12T06:54:48;94541.66;;;-0.59
69420;BMP280;56612;52.030;113.524;2023-02-12T06:57:51;94561.06;;;3.58
69420;BMP280;56612;52.030;113.524;2023-02-12T07:00:54;94553.31;;;3.91
69420;BMP280;56612;52.030;113.524;2023-02-12T07:04:00;94561.66;;;6.21
69420;BMP280;56612;52.030;113.524;2023-02-12T07:07:07;94562.63;;;5.55
69420;BMP280;56612;52.030;113.524;2023-02-12T07:10:10;94539.28;;;4.53
69420;BMP280;56612;52.030;113.524;2023-02-12T07:13:14;94539.72;;;5.15
69420;BMP280;56612;52.030;113.524;2023-02-12T07:16:18;94526.78;;;4.01
69420;BMP280;56612;52.030;113.524;2023-02-12T07:19:22;94538.34;;;0.66
69420;BMP280;56612;52.030;113.524;2023-02-12T07:22:25;94534.06;;;-0.79
69420;BMP280;56612;52.030;113.524;2023-02-12T07:25:29;94558.13;;;2.94
69420;BMP280;56612;52.030;113.524;2023-02-12T07:28:32;94552.00;;;4.23
69420;BMP280;56612;52.030;113.524;2023-02-12T07:31:37;94560.97;;;7.47
69420;BMP280;56612;52.030;113.524;2023-02-12T07:34:41;94566.47;;;8.47
69420;BMP280;56612;52.030;113.524;2023-02-12T07:37:45;94573.31;;;6.27
69420;BMP280;56612;52.030;113.524;2023-02-12T07:40:49;94569.31;;;6.03
69420;BMP280;56612;52.030;113.524;2023-02-12T07:43:57;94563.56;;;6.44
69420;BMP280;56612;52.030;113.524;2023-02-12T07:47:01;94555.06;;;7.21
69420;BMP280;56612;52.030;113.524;2023-02-12T07:50:05;94561.19;;;6.36
69420;BMP280;56612;52.030;113.524;2023-02-12T07:53:09;94549.56;;;7.45
69420;BMP280;56612;52.030;113.524;2023-02-12T07:56:16;94548.50;;;8.48
69420;BMP280;56612;52.030;113.524;2023-02-12T07:59:20;94547.72;;;5.38
69420;BMP280;56612;52.030;113.524;2023-02-12T08:02:23;94548.78;;;5.57
69420;BMP280;56612;52.030;113.524;2023-02-12T08:05:27;94546.56;;;3.18
69420;BMP280;56612;52.030;113.524;2023-02-12T08:08:30;94563.41;;;6.16
69420;BMP280;56612;52.030;113.524;2023-02-12T08:11:34;94559.13;;;7.11
69420;BMP280;56612;52.030;113.524;2023-02-12T08:14:38;94565.34;;;5.34
69420;BMP280;56612;52.030;113.524;2023-02-12T08:17:41;94554.78;;;5.01
69420;BMP280;56612;52.030;113.524;2023-02-12T08:20:45;94561.38;;;5.12
69420;BMP280;56612;52.030;113.524;2023-02-12T08:23:49;94554.56;;;1.51
69420;BMP280;56612;52.030;113.524;2023-02-12T08:26:52;94545.06;;;1.65
69420;BMP280;56612;52.030;113.524;2023-02-12T08:29:57;94543.75;;;2.20
69420;BMP280;56612;52.030;113.524;2023-02-12T08:33:00;94531.50;;;0.45
69420;BMP280;56612;52.030;113.524;2023-02-12T08:36:07;94540.97;;;-0.59
69420;BMP280;56612;52.030;113.524;2023-02-12T08:39:14;94541.81;;;-1.04
69420;BMP280;56612;52.030;113.524;2023-02-12T08:42:18;94534.47;;;-0.58
69420;BMP280;56612;52.030;113.524;2023-02-12T08:45:21;94539.63;;;1.80
69420;BMP280;56612;52.030;113.524;2023-02-12T08:48:25;94549.72;;;3.46
69420;BMP280;56612;52.030;113.524;2023-02-12T08:51:31;94556.56;;;3.01
69420;BMP280;56612;52.030;113.524;2023-02-12T08:54:34;94546.72;;;3.61
69420;BMP280;56612;52.030;113.524;2023-02-12T08:57:38;94541.38;;;3.30
69420;BMP280;56612;52.030;113.524;2023-02-12T09:00:42;94536.13;;;1.78
69420;BMP280;56612;52.030;113.524;2023-02-12T09:03:47;94526.09;;;0.61
69420;BMP280;56612;52.030;113.524;2023-02-12T09:06:51;94523.56;;;0.53
69420;BMP280;56612;52.030;113.524;2023-02-12T09:09:55;94514.59;;;-0.69
69420;BMP280;56612;52.030;113.524;2023-02-12T09:12:59;94518.50;;;-2.09
69420;BMP280;56612;52.030;113.524;2023-02-12T09:16:04;94506.63;;;-3.49
69420;BMP280;56612;52.030;113.524;2023-02-12T09:19:11;94517.28;;;-4.10
69420;BMP280;56612;52.030;113.524;2023-02-12T09:22:15;94526.78;;;-4.81
69420;BMP280;56612;52.030;113.524;2023-02-12T09:25:18;94520.16;;;-4.95
69420;BMP280;56612;52.030;113.524;2023-02-12T09:28:21;94515.41;;;-5.63
69420;BMP280;56612;52.030;113.524;2023-02-12T09:31:29;94517.72;;;-6.04
69420;BMP280;56612;52.030;113.524;2023-02-12T09:34:35;94520.13;;;-6.25
69420;BMP280;56612;52.030;113.524;2023-02-12T09:37:38;94526.22;;;-6.42
69420;BMP280;56612;52.030;113.524;2023-02-12T09:51:08;94526.25;;;-7.09
69420;BMP280;56612;52.030;113.524;2023-02-12T09:54:15;94529.50;;;-7.28
69420;BMP280;56612;52.030;113.524;2023-02-12T09:57:36;94522.09;;;-7.48
69420;BMP280;56612;52.030;113.524;2023-02-12T10:00:40;94522.19;;;-7.59
69420;BMP280;56612;52.030;113.524;2023-02-12T10:03:47;94530.50;;;-7.66
69420;BMP280;56612;52.030;113.524;2023-02-12T10:07:04;94531.81;;;-7.84
69420;BMP280;56612;52.030;113.524;2023-02-12T10:14:20;94558.16;;;-7.75
69420;BMP280;56612;52.030;113.524;2023-02-12T10:17:36;94558.16;;;-7.69
69420;BMP280;56612;52.030;113.524;2023-02-12T10:24:56;94572.53;;;-7.68
69420;BMP280;56612;52.030;113.524;2023-02-12T10:27:53;94570.53;;;-7.92
69420;BMP280;56612;52.030;113.524;2023-02-12T10:31:01;94578.06;;;-7.88
69420;BMP280;56612;52.030;113.524;2023-02-12T10:34:32;94588.66;;;-7.86
69420;BMP280;56612;52.030;113.524;2023-02-12T10:37:42;94588.38;;;-7.83
69420;BMP280;56612;52.030;113.524;2023-02-12T10:40:46;94588.88;;;-7.84
69420;BMP280;56612;52.030;113.524;2023-02-12T10:43:52;94590.53;;;-7.81
69420;BMP280;56612;52.030;113.524;2023-02-12T10:46:55;94597.91;;;-7.96
69420;BMP280;56612;52.030;113.524;2023-02-12T10:50:12;94605.91;;;-7.89
69420;BMP280;56612;52.030;113.524;2023-02-12T10:53:24;94601.66;;;-7.92
69420;BMP280;56612;52.030;113.524;2023-02-12T10:56:29;94608.00;;;-7.93
69420;BMP280;56612;52.030;113.524;2023-02-12T10:59:32;94616.28;;;-7.94
69420;BMP280;56612;52.030;113.524;2023-02-12T11:02:37;94614.44;;;-7.99
69420;BMP280;56612;52.030;113.524;2023-02-12T11:05:43;94625.03;;;-7.97
69420;BMP280;56612;52.030;113.524;2023-02-12T11:08:46;94619.91;;;-8.09
69420;BMP280;56612;52.030;113.524;2023-02-12T11:11:50;94628.91;;;-8.21
69420;BMP280;56612;52.030;113.524;2023-02-12T11:14:59;94626.53;;;-8.19
69420;BMP280;56612;52.030;113.524;2023-02-12T11:18:05;94616.00;;;-8.32
69420;BMP280;56612;52.030;113.524;2023-02-12T11:21:13;94627.03;;;-8.20
69420;BMP280;56612;52.030;113.524;2023-02-12T11:27:31;94636.22;;;-8.36
69420;BMP280;56612;52.030;113.524;2023-02-12T11:30:35;94630.16;;;-8.44
69420;BMP280;56612;52.030;113.524;2023-02-12T11:33:39;94623.81;;;-8.66
69420;BMP280;56612;52.030;113.524;2023-02-12T11:36:53;94625.50;;;-8.80
69420;BMP280;56612;52.030;113.524;2023-02-12T11:39:57;94625.69;;;-8.66
69420;BMP280;56612;52.030;113.524;2023-02-12T11:43:05;94628.03;;;-8.57
69420;BMP280;56612;52.030;113.524;2023-02-12T11:46:19;94625.72;;;-8.72
69420;BMP280;56612;52.030;113.524;2023-02-12T11:49:29;94631.59;;;-8.66
69420;BMP280;56612;52.030;113.524;2023-02-12T11:52:36;94632.31;;;-8.71
69420;BMP280;56612;52.030;113.524;2023-02-12T11:55:53;94634.94;;;-8.82
69420;BMP280;56612;52.030;113.524;2023-02-12T11:59:31;94637.97;;;-8.78
69420;BMP280;56612;52.030;113.524;2023-02-12T12:02:36;94622.47;;;-8.84
69420;BMP280;56612;52.030;113.524;2023-02-12T12:05:55;94616.34;;;-8.92
69420;BMP280;56612;52.030;113.524;2023-02-12T12:09:27;94615.59;;;-8.87
69420;BMP280;56612;52.030;113.524;2023-02-12T12:15:45;94621.75;;;-8.84
69420;BMP280;56612;52.030;113.524;2023-02-12T12:19:15;94623.16;;;-8.83
69420;BMP280;56612;52.030;113.524;2023-02-12T12:23:29;94626.94;;;-8.84
69420;BMP280;56612;52.030;113.524;2023-02-12T12:26:34;94619.63;;;-8.91
69420;BMP280;56612;52.030;113.524;2023-02-12T12:29:57;94630.94;;;-8.94
69420;BMP280;56612;52.030;113.524;2023-02-12T12:33:15;94632.81;;;-9.12
69420;BMP280;56612;52.030;113.524;2023-02-12T12:39:42;94636.81;;;-9.27
69420;BMP280;56612;52.030;113.524;2023-02-12T12:46:07;94634.44;;;-9.37
69420;BMP280;56612;52.030;113.524;2023-02-12T12:52:47;94640.06;;;-9.55
69420;BMP280;56612;52.030;113.524;2023-02-12T13:13:25;94631.09;;;-9.65
69420;BMP280;56612;52.030;113.524;2023-02-12T13:16:44;94631.56;;;-9.61
69420;BMP280;56612;52.030;113.524;2023-02-12T13:26:23;94641.00;;;-9.58
69420;BMP280;56612;52.030;113.524;2023-02-12T13:29:50;94645.66;;;-9.62
69420;BMP280;56612;52.030;113.524;2023-02-12T13:33:10;94648.97;;;-9.62
69420;BMP280;56612;52.030;113.524;2023-02-12T13:36:14;94645.47;;;-9.59
69420;BMP280;56612;52.030;113.524;2023-02-12T13:39:26;94654.88;;;-9.55
69420;BMP280;56612;52.030;113.524;2023-02-12T13:46:12;94639.31;;;-9.78
69420;BMP280;56612;52.030;113.524;2023-02-12T13:49:42;94651.53;;;-9.73
69420;BMP280;56612;52.030;113.524;2023-02-12T14:05:40;94611.03;;;-9.93
69420;BMP280;56612;52.030;113.524;2023-02-12T14:08:50;94603.06;;;-9.89
69420;BMP280;56612;52.030;113.524;2023-02-12T14:11:54;94621.66;;;-9.79
69420;BMP280;56612;52.030;113.524;2023-02-12T14:15:07;94622.59;;;-9.77
69420;BMP280;56612;52.030;113.524;2023-02-12T14:18:35;94637.19;;;-9.63
69420;BMP280;56612;52.030;113.524;2023-02-12T14:21:38;94623.81;;;-9.67
69420;BMP280;56612;52.030;113.524;2023-02-12T14:24:50;94617.59;;;-9.92
69420;BMP280;56612;52.030;113.524;2023-02-12T14:37:38;94615.41;;;-10.21
69420;BMP280;56612;52.030;113.524;2023-02-12T14:40:43;94623.13;;;-10.27
69420;BMP280;56612;52.030;113.524;2023-02-12T14:43:49;94621.91;;;-10.31
69420;BMP280;56612;52.030;113.524;2023-02-12T14:47:15;94621.94;;;-10.26
69420;BMP280;56612;52.030;113.524;2023-02-12T14:50:40;94626.00;;;-10.14
69420;BMP280;56612;52.030;113.524;2023-02-12T14:53:48;94622.25;;;-10.07
69420;BMP280;56612;52.030;113.524;2023-02-12T14:56:53;94619.22;;;-10.11
69420;BMP280;56612;52.030;113.524;2023-02-12T15:00:22;94626.16;;;-10.23
69420;BMP280;56612;52.030;113.524;2023-02-12T15:06:48;94629.28;;;-10.13
69420;BMP280;56612;52.030;113.524;2023-02-12T15:09:59;94616.88;;;-10.03
69420;BMP280;56612;52.030;113.524;2023-02-12T15:16:44;94623.72;;;-10.00
69420;BMP280;56612;52.030;113.524;2023-02-12T15:22:56;94639.41;;;-10.10
69420;BMP280;56612;52.030;113.524;2023-02-12T15:26:01;94639.94;;;-10.00
69420;BMP280;56612;52.030;113.524;2023-02-12T15:29:05;94637.81;;;-9.96
69420;BMP280;56612;52.030;113.524;2023-02-12T15:32:16;94637.81;;;-10.01
69420;BMP280;56612;52.030;113.524;2023-02-12T15:35:26;94654.94;;;-10.04
69420;BMP280;56612;52.030;113.524;2023-02-12T15:38:33;94656.38;;;-9.97
69420;BMP280;56612;52.030;113.524;2023-02-12T15:41:39;94665.53;;;-9.96
69420;BMP280;56612;52.030;113.524;2023-02-12T15:44:44;94668.38;;;-9.94
69420;BMP280;56612;52.030;113.524;2023-02-12T15:48:00;94670.50;;;-9.93
69420;BMP280;56612;52.030;113.524;2023-02-12T15:54:20;94671.88;;;-10.03
69420;BMP280;56612;52.030;113.524;2023-02-12T15:57:25;94666.69;;;-10.03
69420;BMP280;56612;52.030;113.524;2023-02-12T16:00:59;94669.25;;;-10.09
69420;BMP280;56612;52.030;113.524;2023-02-12T16:04:05;94654.47;;;-10.08
69420;BMP280;56612;52.030;113.524;2023-02-12T16:07:09;94644.53;;;-10.21
69420;BMP280;56612;52.030;113.524;2023-02-12T16:10:18;94652.94;;;-10.26
69420;BMP280;56612;52.030;113.524;2023-02-12T16:13:33;94643.94;;;-10.42
69420;BMP280;56612;52.030;113.524;2023-02-12T16:19:55;94653.59;;;-10.42
69420;BMP280;56612;52.030;113.524;2023-02-12T16:23:05;94648.59;;;-10.51
69420;BMP280;56612;52.030;113.524;2023-02-12T16:26:22;94649.53;;;-10.49
69420;BMP280;56612;52.030;113.524;2023-02-12T16:29:27;94634.03;;;-10.49
69420;BMP280;56612;52.030;113.524;2023-02-12T16:32:37;94641.09;;;-10.44
69420;BMP280;56612;52.030;113.524;2023-02-12T16:35:41;94648.34;;;-10.48
69420;BMP280;56612;52.030;113.524;2023-02-12T16:41:57;94653.25;;;-10.55
69420;BMP280;56612;52.030;113.524;2023-02-12T16:45:01;94656.34;;;-10.51
69420;BMP280;56612;52.030;113.524;2023-02-12T16:48:25;94651.81;;;-10.62
69420;BMP280;56612;52.030;113.524;2023-02-12T16:51:31;94652.06;;;-10.60
69420;BMP280;56612;52.030;113.524;2023-02-12T16:54:35;94648.09;;;-10.55
69420;BMP280;56612;52.030;113.524;2023-02-12T16:57:39;94657.00;;;-10.62
69420;BMP280;56612;52.030;113.524;2023-02-12T17:00:42;94648.47;;;-10.68
69420;BMP280;56612;52.030;113.524;2023-02-12T17:03:46;94659.34;;;-10.58
69420;BMP280;56612;52.030;113.524;2023-02-12T17:06:52;94654.66;;;-10.54
69420;BMP280;56612;52.030;113.524;2023-02-12T17:09:56;94654.16;;;-10.58
69420;BMP280;56612;52.030;113.524;2023-02-12T17:13:00;94650.13;;;-10.71
69420;BMP280;56612;52.030;113.524;2023-02-12T17:16:04;94653.00;;;-10.63
69420;BMP280;56612;52.030;113.524;2023-02-12T17:19:08;94644.47;;;-10.69
69420;BMP280;56612;52.030;113.524;2023-02-12T17:22:23;94647.38;;;-10.56
69420;BMP280;56612;52.030;113.524;2023-02-12T17:25:27;94654.00;;;-10.49
69420;BMP280;56612;52.030;113.524;2023-02-12T17:28:32;94654.09;;;-10.32
69420;BMP280;56612;52.030;113.524;2023-02-12T17:31:36;94648.94;;;-10.32
69420;BMP280;56612;52.030;113.524;2023-02-12T17:34:41;94648.22;;;-10.39
69420;BMP280;56612;52.030;113.524;2023-02-12T17:37:51;94651.50;;;-10.38
69420;BMP280;56612;52.030;113.524;2023-02-12T17:40:54;94648.91;;;-10.38
69420;BMP280;56612;52.030;113.524;2023-02-12T17:43:58;94647.28;;;-10.36
69420;BMP280;56612;52.030;113.524;2023-02-12T17:47:02;94653.44;;;-10.27
69420;BMP280;56612;52.030;113.524;2023-02-12T17:50:10;94649.91;;;-10.30
69420;BMP280;56612;52.030;113.524;2023-02-12T17:53:14;94650.38;;;-10.26
69420;BMP280;56612;52.030;113.524;2023-02-12T17:56:20;94647.75;;;-10.31
69420;BMP280;56612;52.030;113.524;2023-02-12T17:59:24;94647.28;;;-10.36
69420;BMP280;56612;52.030;113.524;2023-02-12T18:02:28;94637.78;;;-10.50
69420;BMP280;56612;52.030;113.524;2023-02-12T18:05:32;94643.63;;;-10.55
69420;BMP280;56612;52.030;113.524;2023-02-12T18:08:37;94651.41;;;-10.49
69420;BMP280;56612;52.030;113.524;2023-02-12T18:11:40;94633.56;;;-10.53
69420;BMP280;56612;52.030;113.524;2023-02-12T18:14:44;94650.22;;;-10.54
69420;BMP280;56612;52.030;113.524;2023-02-12T18:17:48;94641.72;;;-10.60
69420;BMP280;56612;52.030;113.524;2023-02-12T18:20:51;94639.09;;;-10.66
69420;BMP280;56612;52.030;113.524;2023-02-12T18:23:54;94648.72;;;-10.66
69420;BMP280;56612;52.030;113.524;2023-02-12T18:26:57;94645.44;;;-10.67
69420;BMP280;56612;52.030;113.524;2023-02-12T18:30:01;94651.53;;;-10.70
69420;BMP280;56612;52.030;113.524;2023-02-12T18:33:05;94644.69;;;-10.73
69420;BMP280;56612;52.030;113.524;2023-02-12T18:36:15;94642.59;;;-10.69
69420;BMP280;56612;52.030;113.524;2023-02-12T18:39:19;94637.91;;;-10.65
69420;BMP280;56612;52.030;113.524;2023-02-12T18:42:22;94636.78;;;-10.64
69420;BMP280;56612;52.030;113.524;2023-02-12T18:45:26;94636.78;;;-10.64
69420;BMP280;56612;52.030;113.524;2023-02-12T18:48:29;94633.91;;;-10.66
69420;BMP280;56612;52.030;113.524;2023-02-12T18:51:32;94629.06;;;-10.64
69420;BMP280;56612;52.030;113.524;2023-02-12T18:54:38;94625.47;;;-10.66
69420;BMP280;56612;52.030;113.524;2023-02-12T18:57:41;94626.19;;;-10.66
69420;BMP280;56612;52.030;113.524;2023-02-12T19:00:45;94621.00;;;-10.66
69420;BMP280;56612;52.030;113.524;2023-02-12T19:03:56;94618.94;;;-10.62
69420;BMP280;56612;52.030;113.524;2023-02-12T19:07:00;94619.84;;;-10.65
69420;BMP280;56612;52.030;113.524;2023-02-12T19:10:04;94618.47;;;-10.60
69420;BMP280;56612;52.030;113.524;2023-02-12T19:13:08;94615.66;;;-10.62
69420;BMP280;56612;52.030;113.524;2023-02-12T19:16:14;94620.13;;;-10.63
69420;BMP280;56612;52.030;113.524;2023-02-12T19:19:19;94609.09;;;-10.63
69420;BMP280;56612;52.030;113.524;2023-02-12T19:22:22;94604.88;;;-10.61
69420;BMP280;56612;52.030;113.524;2023-02-12T19:25:25;94613.09;;;-10.56
69420;BMP280;56612;52.030;113.524;2023-02-12T19:28:29;94597.13;;;-10.61
69420;BMP280;56612;52.030;113.524;2023-02-12T19:31:38;94608.66;;;-10.50
69420;BMP280;56612;52.030;113.524;2023-02-12T19:34:43;94607.50;;;-10.49
69420;BMP280;56612;52.030;113.524;2023-02-12T19:37:48;94594.59;;;-10.49
69420;BMP280;56612;52.030;113.524;2023-02-12T19:40:51;94607.03;;;-10.53
69420;BMP280;56612;52.030;113.524;2023-02-12T19:44:03;94606.59;;;-10.46
69420;BMP280;56612;52.030;113.524;2023-02-12T19:47:07;94605.66;;;-10.43
69420;BMP280;56612;52.030;113.524;2023-02-12T19:50:11;94609.38;;;-10.50
69420;BMP280;56612;52.030;113.524;2023-02-12T19:53:15;94608.19;;;-10.54
69420;BMP280;56612;52.030;113.524;2023-02-12T19:56:18;94608.63;;;-10.62
69420;BMP280;56612;52.030;113.524;2023-02-12T19:59:23;94603.34;;;-10.78